sensor_id;sensor_type;location;lat;lon;timestamp;temperature;humidity
23507;DHT22;11930;53.076;18.250;2022-08-11T00:00:07;13.20;99.90
23507;DHT22;11930;53.076;18.250;2022-08-11T00:02:54;13.10;99.90
23507;DHT22;11930;53.076;18.250;2022-08-11T00:05:21;13.00;99.90
23507;DHT22;11930;53.076;18.250;2022-08-11T00:07:52;12.90;99.90
23507;DHT22;11930;53.076;18.250;2022-08-11T00:10:24;12.90;99.90
23507;DHT22;11930;53.076;18.250;2022-08-11T00:13:02;12.80;99.90
23507;DHT22;11930;53.076;18.250;2022-08-11T00:15:41;12.80;99.90
23507;DHT22;11930;53.076;18.250;2022-08-11T00:18:08;12.80;99.90
23507;DHT22;11930;53.076;18.250;2022-08-11T00:20:39;12.70;99.90
23507;DHT22;11930;53.076;18.250;2022-08-11T00:23:08;12.70;99.90
23507;DHT22;11930;53.076;18.250;2022-08-11T00:25:39;12.60;99.90
23507;DHT22;11930;53.076;18.250;2022-08-11T00:28:29;12.60;99.90
23507;DHT22;11930;53.076;18.250;2022-08-11T00:31:00;12.50;99.90
23507;DHT22;11930;53.076;18.250;2022-08-11T00:33:42;12.50;99.90
23507;DHT22;11930;53.076;18.250;2022-08-11T00:36:10;12.40;99.90
23507;DHT22;11930;53.076;18.250;2022-08-11T00:38:38;12.50;99.90
23507;DHT22;11930;53.076;18.250;2022-08-11T00:44:11;12.40;99.90
23507;DHT22;11930;53.076;18.250;2022-08-11T00:46:49;12.40;99.90
23507;DHT22;11930;53.076;18.250;2022-08-11T00:49:46;12.30;99.90
23507;DHT22;11930;53.076;18.250;2022-08-11T00:52:28;12.30;99.90
23507;DHT22;11930;53.076;18.250;2022-08-11T00:55:02;12.20;99.90
23507;DHT22;11930;53.076;18.250;2022-08-11T01:00:21;12.10;99.90
23507;DHT22;11930;53.076;18.250;2022-08-11T01:05:50;12.00;99.90
23507;DHT22;11930;53.076;18.250;2022-08-11T01:11:39;11.90;99.90
23507;DHT22;11930;53.076;18.250;2022-08-11T01:14:41;11.90;99.90
23507;DHT22;11930;53.076;18.250;2022-08-11T01:36:54;11.60;99.90
23507;DHT22;11930;53.076;18.250;2022-08-11T01:45:50;11.50;99.90
23507;DHT22;11930;53.076;18.250;2022-08-11T02:08:44;11.20;99.90
23507;DHT22;11930;53.076;18.250;2022-08-11T02:11:27;11.20;99.90
23507;DHT22;11930;53.076;18.250;2022-08-11T02:17:14;11.10;99.90
23507;DHT22;11930;53.076;18.250;2022-08-11T02:20:06;11.10;99.90
23507;DHT22;11930;53.076;18.250;2022-08-11T02:23:26;11.00;99.90
23507;DHT22;11930;53.076;18.250;2022-08-11T02:26:27;11.00;99.90
23507;DHT22;11930;53.076;18.250;2022-08-11T02:35:13;10.80;99.90
23507;DHT22;11930;53.076;18.250;2022-08-11T02:40:21;10.80;99.90
23507;DHT22;11930;53.076;18.250;2022-08-11T02:42:49;10.70;99.90
23507;DHT22;11930;53.076;18.250;2022-08-11T02:45:44;10.70;99.90
23507;DHT22;11930;53.076;18.250;2022-08-11T02:56:57;10.60;99.90
23507;DHT22;11930;53.076;18.250;2022-08-11T02:59:46;10.60;99.90
23507;DHT22;11930;53.076;18.250;2022-08-11T03:22:00;10.60;99.90
23507;DHT22;11930;53.076;18.250;2022-08-11T03:27:32;10.50;99.90
23507;DHT22;11930;53.076;18.250;2022-08-11T03:30:14;10.50;99.90
23507;DHT22;11930;53.076;18.250;2022-08-11T03:35:39;10.50;99.90
23507;DHT22;11930;53.076;18.250;2022-08-11T03:38:11;10.50;99.90
23507;DHT22;11930;53.076;18.250;2022-08-11T03:41:01;10.50;99.90
23507;DHT22;11930;53.076;18.250;2022-08-11T03:50:04;10.70;99.90
23507;DHT22;11930;53.076;18.250;2022-08-11T03:52:52;10.90;99.90
23507;DHT22;11930;53.076;18.250;2022-08-11T04:41:50;24.10;79.30
23507;DHT22;11930;53.076;18.250;2022-08-11T04:47:32;25.30;69.70
23507;DHT22;11930;53.076;18.250;2022-08-11T04:56:39;24.10;73.50
23507;DHT22;11930;53.076;18.250;2022-08-11T04:59:51;23.40;80.40
23507;DHT22;11930;53.076;18.250;2022-08-11T05:13:51;19.60;99.90
23507;DHT22;11930;53.076;18.250;2022-08-11T05:16:50;19.20;99.90
23507;DHT22;11930;53.076;18.250;2022-08-11T05:19:36;18.80;99.90
23507;DHT22;11930;53.076;18.250;2022-08-11T05:22:28;18.60;99.90
23507;DHT22;11930;53.076;18.250;2022-08-11T05:25:34;18.40;99.90
23507;DHT22;11930;53.076;18.250;2022-08-11T05:28:34;18.50;99.90
23507;DHT22;11930;53.076;18.250;2022-08-11T05:31:25;18.50;99.90
23507;DHT22;11930;53.076;18.250;2022-08-11T05:34:16;18.80;99.90
23507;DHT22;11930;53.076;18.250;2022-08-11T05:37:08;19.00;99.90
23507;DHT22;11930;53.076;18.250;2022-08-11T05:39:47;18.90;99.90
23507;DHT22;11930;53.076;18.250;2022-08-11T05:42:37;18.70;99.90
23507;DHT22;11930;53.076;18.250;2022-08-11T05:45:24;18.70;99.90
23507;DHT22;11930;53.076;18.250;2022-08-11T05:48:09;18.80;99.90
23507;DHT22;11930;53.076;18.250;2022-08-11T05:50:59;18.70;99.90
23507;DHT22;11930;53.076;18.250;2022-08-11T05:54:03;18.80;99.90
23507;DHT22;11930;53.076;18.250;2022-08-11T05:56:53;18.90;99.90
23507;DHT22;11930;53.076;18.250;2022-08-11T05:59:21;18.90;99.90
23507;DHT22;11930;53.076;18.250;2022-08-11T06:01:49;18.80;99.90
23507;DHT22;11930;53.076;18.250;2022-08-11T06:06:58;18.80;99.90
23507;DHT22;11930;53.076;18.250;2022-08-11T06:09:49;18.70;99.90
23507;DHT22;11930;53.076;18.250;2022-08-11T06:12:30;18.80;99.90
23507;DHT22;11930;53.076;18.250;2022-08-11T06:15:02;18.70;99.90
23507;DHT22;11930;53.076;18.250;2022-08-11T06:17:33;18.70;99.90
23507;DHT22;11930;53.076;18.250;2022-08-11T06:20:05;19.00;99.90
23507;DHT22;11930;53.076;18.250;2022-08-11T06:22:34;19.10;99.90
23507;DHT22;11930;53.076;18.250;2022-08-11T06:25:07;19.20;99.90
23507;DHT22;11930;53.076;18.250;2022-08-11T06:27:37;19.20;99.90
23507;DHT22;11930;53.076;18.250;2022-08-11T06:30:07;19.30;99.90
23507;DHT22;11930;53.076;18.250;2022-08-11T06:32:41;19.60;99.90
23507;DHT22;11930;53.076;18.250;2022-08-11T06:48:15;22.50;99.90
23507;DHT22;11930;53.076;18.250;2022-08-11T06:50:51;22.50;99.90
23507;DHT22;11930;53.076;18.250;2022-08-11T06:53:43;23.10;99.90
23507;DHT22;11930;53.076;18.250;2022-08-11T06:56:11;23.90;95.70
23507;DHT22;11930;53.076;18.250;2022-08-11T06:58:58;25.00;94.20
23507;DHT22;11930;53.076;18.250;2022-08-11T07:13:42;31.30;58.30
23507;DHT22;11930;53.076;18.250;2022-08-11T07:16:28;31.30;55.90
23507;DHT22;11930;53.076;18.250;2022-08-11T07:19:06;32.20;55.10
23507;DHT22;11930;53.076;18.250;2022-08-11T07:21:54;32.30;52.10
23507;DHT22;11930;53.076;18.250;2022-08-11T07:24:43;32.10;53.10
23507;DHT22;11930;53.076;18.250;2022-08-11T07:28:00;32.60;52.00
23507;DHT22;11930;53.076;18.250;2022-08-11T07:30:47;33.30;51.30
23507;DHT22;11930;53.076;18.250;2022-08-11T07:33:24;34.10;48.90
23507;DHT22;11930;53.076;18.250;2022-08-11T07:35:56;33.90;48.90
23507;DHT22;11930;53.076;18.250;2022-08-11T07:38:28;33.90;48.10
23507;DHT22;11930;53.076;18.250;2022-08-11T07:41:14;34.50;45.80
23507;DHT22;11930;53.076;18.250;2022-08-11T07:43:42;36.10;43.80
23507;DHT22;11930;53.076;18.250;2022-08-11T07:46:10;36.60;42.70
23507;DHT22;11930;53.076;18.250;2022-08-11T07:48:56;35.70;42.60
23507;DHT22;11930;53.076;18.250;2022-08-11T07:51:42;34.80;44.80
23507;DHT22;11930;53.076;18.250;2022-08-11T07:54:29;34.00;45.10
23507;DHT22;11930;53.076;18.250;2022-08-11T07:56:55;34.20;45.20
23507;DHT22;11930;53.076;18.250;2022-08-11T07:59:22;34.40;44.70
23507;DHT22;11930;53.076;18.250;2022-08-11T08:02:09;35.00;44.10
23507;DHT22;11930;53.076;18.250;2022-08-11T08:04:56;35.50;42.30
23507;DHT22;11930;53.076;18.250;2022-08-11T08:07:51;36.50;41.60
23507;DHT22;11930;53.076;18.250;2022-08-11T08:10:36;37.40;39.50
23507;DHT22;11930;53.076;18.250;2022-08-11T08:13:21;36.50;40.10
23507;DHT22;11930;53.076;18.250;2022-08-11T08:16:07;36.30;38.70
23507;DHT22;11930;53.076;18.250;2022-08-11T08:18:52;37.70;36.70
23507;DHT22;11930;53.076;18.250;2022-08-11T08:21:22;37.60;36.50
23507;DHT22;11930;53.076;18.250;2022-08-11T08:23:48;36.90;37.40
23507;DHT22;11930;53.076;18.250;2022-08-11T08:26:15;37.30;35.90
23507;DHT22;11930;53.076;18.250;2022-08-11T08:29:02;36.50;36.80
23507;DHT22;11930;53.076;18.250;2022-08-11T08:31:52;35.50;39.00
23507;DHT22;11930;53.076;18.250;2022-08-11T08:34:20;35.80;38.40
23507;DHT22;11930;53.076;18.250;2022-08-11T08:36:49;35.10;41.50
23507;DHT22;11930;53.076;18.250;2022-08-11T08:39:22;34.70;40.70
23507;DHT22;11930;53.076;18.250;2022-08-11T08:41:54;34.80;40.20
23507;DHT22;11930;53.076;18.250;2022-08-11T08:44:21;34.60;37.90
23507;DHT22;11930;53.076;18.250;2022-08-11T08:46:55;34.70;38.20
23507;DHT22;11930;53.076;18.250;2022-08-11T08:49:34;35.40;37.30
23507;DHT22;11930;53.076;18.250;2022-08-11T08:52:03;34.90;37.00
23507;DHT22;11930;53.076;18.250;2022-08-11T08:54:36;35.30;38.10
23507;DHT22;11930;53.076;18.250;2022-08-11T08:57:06;35.40;39.00
23507;DHT22;11930;53.076;18.250;2022-08-11T08:59:38;35.70;39.20
23507;DHT22;11930;53.076;18.250;2022-08-11T09:02:05;36.00;38.40
23507;DHT22;11930;53.076;18.250;2022-08-11T09:04:33;36.10;38.40
23507;DHT22;11930;53.076;18.250;2022-08-11T09:07:08;35.60;39.50
23507;DHT22;11930;53.076;18.250;2022-08-11T09:09:44;34.60;40.20
23507;DHT22;11930;53.076;18.250;2022-08-11T09:12:12;33.50;40.00
23507;DHT22;11930;53.076;18.250;2022-08-11T09:14:41;32.60;39.90
23507;DHT22;11930;53.076;18.250;2022-08-11T09:20:09;31.10;43.20
23507;DHT22;11930;53.076;18.250;2022-08-11T09:22:39;30.60;44.20
23507;DHT22;11930;53.076;18.250;2022-08-11T09:25:26;30.10;45.60
23507;DHT22;11930;53.076;18.250;2022-08-11T09:28:14;29.70;47.40
23507;DHT22;11930;53.076;18.250;2022-08-11T09:30:47;29.40;47.00
23507;DHT22;11930;53.076;18.250;2022-08-11T09:33:15;29.40;47.20
23507;DHT22;11930;53.076;18.250;2022-08-11T09:35:42;29.60;46.20
23507;DHT22;11930;53.076;18.250;2022-08-11T09:38:13;29.60;48.40
23507;DHT22;11930;53.076;18.250;2022-08-11T09:41:17;29.10;47.10
23507;DHT22;11930;53.076;18.250;2022-08-11T09:43:55;29.10;46.30
23507;DHT22;11930;53.076;18.250;2022-08-11T09:46:40;29.40;47.00
23507;DHT22;11930;53.076;18.250;2022-08-11T09:49:09;29.60;47.00
23507;DHT22;11930;53.076;18.250;2022-08-11T09:51:35;29.30;47.50
23507;DHT22;11930;53.076;18.250;2022-08-11T09:54:03;29.30;47.00
23507;DHT22;11930;53.076;18.250;2022-08-11T09:56:33;29.00;47.80
23507;DHT22;11930;53.076;18.250;2022-08-11T09:59:20;29.10;47.10
23507;DHT22;11930;53.076;18.250;2022-08-11T10:01:53;29.40;46.90
23507;DHT22;11930;53.076;18.250;2022-08-11T10:04:37;29.30;47.40
23507;DHT22;11930;53.076;18.250;2022-08-11T10:07:05;29.20;46.80
23507;DHT22;11930;53.076;18.250;2022-08-11T10:10:00;29.10;47.20
23507;DHT22;11930;53.076;18.250;2022-08-11T10:12:40;28.60;49.00
23507;DHT22;11930;53.076;18.250;2022-08-11T10:15:08;28.30;49.40
23507;DHT22;11930;53.076;18.250;2022-08-11T10:21:01;28.40;49.20
23507;DHT22;11930;53.076;18.250;2022-08-11T10:23:48;29.10;49.80
23507;DHT22;11930;53.076;18.250;2022-08-11T10:26:41;29.40;48.00
23507;DHT22;11930;53.076;18.250;2022-08-11T10:29:35;29.10;47.50
23507;DHT22;11930;53.076;18.250;2022-08-11T10:32:23;29.20;47.00
23507;DHT22;11930;53.076;18.250;2022-08-11T10:35:09;29.10;47.60
23507;DHT22;11930;53.076;18.250;2022-08-11T10:37:39;28.80;47.50
23507;DHT22;11930;53.076;18.250;2022-08-11T10:40:06;28.90;48.50
23507;DHT22;11930;53.076;18.250;2022-08-11T10:42:33;29.10;47.00
23507;DHT22;11930;53.076;18.250;2022-08-11T10:45:19;28.90;46.20
23507;DHT22;11930;53.076;18.250;2022-08-11T10:48:04;29.10;46.90
23507;DHT22;11930;53.076;18.250;2022-08-11T10:50:32;29.10;46.50
23507;DHT22;11930;53.076;18.250;2022-08-11T10:53:17;28.90;46.40
23507;DHT22;11930;53.076;18.250;2022-08-11T10:56:03;28.80;46.50
23507;DHT22;11930;53.076;18.250;2022-08-11T10:58:49;28.40;48.50
23507;DHT22;11930;53.076;18.250;2022-08-11T11:01:29;28.30;49.30
23507;DHT22;11930;53.076;18.250;2022-08-11T11:04:07;28.30;48.50
23507;DHT22;11930;53.076;18.250;2022-08-11T11:09:30;28.60;47.00
23507;DHT22;11930;53.076;18.250;2022-08-11T11:12:02;28.90;47.50
23507;DHT22;11930;53.076;18.250;2022-08-11T11:14:49;28.80;45.90
23507;DHT22;11930;53.076;18.250;2022-08-11T11:17:42;28.50;46.90
23507;DHT22;11930;53.076;18.250;2022-08-11T11:20:37;28.80;46.00
23507;DHT22;11930;53.076;18.250;2022-08-11T11:36:56;28.40;46.40
23507;DHT22;11930;53.076;18.250;2022-08-11T11:39:27;28.20;46.90
23507;DHT22;11930;53.076;18.250;2022-08-11T11:41:58;28.60;45.30
23507;DHT22;11930;53.076;18.250;2022-08-11T11:44:26;28.60;47.00
23507;DHT22;11930;53.076;18.250;2022-08-11T11:46:53;28.60;47.00
23507;DHT22;11930;53.076;18.250;2022-08-11T11:49:23;28.20;47.00
23507;DHT22;11930;53.076;18.250;2022-08-11T11:51:51;27.90;48.00
23507;DHT22;11930;53.076;18.250;2022-08-11T11:54:25;27.70;48.30
23507;DHT22;11930;53.076;18.250;2022-08-11T11:56:55;27.00;48.60
23507;DHT22;11930;53.076;18.250;2022-08-11T11:59:24;26.60;49.70
23507;DHT22;11930;53.076;18.250;2022-08-11T12:02:12;26.40;50.20
23507;DHT22;11930;53.076;18.250;2022-08-11T12:04:44;26.40;49.90
23507;DHT22;11930;53.076;18.250;2022-08-11T12:07:12;26.60;48.70
23507;DHT22;11930;53.076;18.250;2022-08-11T12:09:58;26.50;50.50
23507;DHT22;11930;53.076;18.250;2022-08-11T12:12:24;26.30;50.60
23507;DHT22;11930;53.076;18.250;2022-08-11T12:15:11;26.40;51.60
23507;DHT22;11930;53.076;18.250;2022-08-11T12:17:38;26.60;50.20
23507;DHT22;11930;53.076;18.250;2022-08-11T12:20:05;26.70;49.50
23507;DHT22;11930;53.076;18.250;2022-08-11T12:22:33;27.00;49.30
23507;DHT22;11930;53.076;18.250;2022-08-11T12:25:18;27.10;48.20
23507;DHT22;11930;53.076;18.250;2022-08-11T12:28:03;27.40;48.00
23507;DHT22;11930;53.076;18.250;2022-08-11T12:30:29;27.60;47.00
23507;DHT22;11930;53.076;18.250;2022-08-11T12:32:56;27.70;46.30
23507;DHT22;11930;53.076;18.250;2022-08-11T12:35:22;27.70;46.20
23507;DHT22;11930;53.076;18.250;2022-08-11T12:37:52;27.80;45.70
23507;DHT22;11930;53.076;18.250;2022-08-11T12:40:24;27.70;45.80
23507;DHT22;11930;53.076;18.250;2022-08-11T12:43:14;27.70;45.50
23507;DHT22;11930;53.076;18.250;2022-08-11T12:46:03;27.70;45.20
23507;DHT22;11930;53.076;18.250;2022-08-11T12:48:36;27.70;46.70
23507;DHT22;11930;53.076;18.250;2022-08-11T12:51:24;27.70;45.30
23507;DHT22;11930;53.076;18.250;2022-08-11T12:54:15;27.60;45.80
23507;DHT22;11930;53.076;18.250;2022-08-11T12:56:45;27.60;46.00
23507;DHT22;11930;53.076;18.250;2022-08-11T12:59:31;27.50;46.00
23507;DHT22;11930;53.076;18.250;2022-08-11T13:02:19;27.40;46.20
23507;DHT22;11930;53.076;18.250;2022-08-11T13:05:06;27.50;46.40
23507;DHT22;11930;53.076;18.250;2022-08-11T13:07:34;27.80;45.00
23507;DHT22;11930;53.076;18.250;2022-08-11T13:10:05;27.80;44.60
23507;DHT22;11930;53.076;18.250;2022-08-11T13:12:34;27.90;44.90
23507;DHT22;11930;53.076;18.250;2022-08-11T13:15:16;27.80;45.10
23507;DHT22;11930;53.076;18.250;2022-08-11T13:17:43;27.70;44.00
23507;DHT22;11930;53.076;18.250;2022-08-11T13:20:10;27.70;43.80
23507;DHT22;11930;53.076;18.250;2022-08-11T13:22:42;27.50;43.90
23507;DHT22;11930;53.076;18.250;2022-08-11T13:25:14;27.20;44.60
23507;DHT22;11930;53.076;18.250;2022-08-11T13:27:42;26.80;44.50
23507;DHT22;11930;53.076;18.250;2022-08-11T13:30:09;26.70;44.70
23507;DHT22;11930;53.076;18.250;2022-08-11T13:32:54;26.70;45.20
23507;DHT22;11930;53.076;18.250;2022-08-11T13:35:21;26.90;44.60
23507;DHT22;11930;53.076;18.250;2022-08-11T13:37:50;26.90;44.00
23507;DHT22;11930;53.076;18.250;2022-08-11T13:40:19;27.00;43.70
23507;DHT22;11930;53.076;18.250;2022-08-11T13:42:46;27.10;44.40
23507;DHT22;11930;53.076;18.250;2022-08-11T13:45:12;27.10;44.10
23507;DHT22;11930;53.076;18.250;2022-08-11T13:47:39;27.00;44.30
23507;DHT22;11930;53.076;18.250;2022-08-11T13:50:07;27.10;43.00
23507;DHT22;11930;53.076;18.250;2022-08-11T13:52:35;27.10;43.80
23507;DHT22;11930;53.076;18.250;2022-08-11T13:55:09;27.10;43.00
23507;DHT22;11930;53.076;18.250;2022-08-11T13:57:36;26.90;43.50
23507;DHT22;11930;53.076;18.250;2022-08-11T14:00:05;27.00;43.50
23507;DHT22;11930;53.076;18.250;2022-08-11T14:02:41;27.10;44.80
23507;DHT22;11930;53.076;18.250;2022-08-11T14:05:12;27.10;45.00
23507;DHT22;11930;53.076;18.250;2022-08-11T14:07:51;27.20;44.40
23507;DHT22;11930;53.076;18.250;2022-08-11T14:10:20;27.20;43.00
23507;DHT22;11930;53.076;18.250;2022-08-11T14:12:54;27.20;43.50
23507;DHT22;11930;53.076;18.250;2022-08-11T14:15:42;27.00;42.80
23507;DHT22;11930;53.076;18.250;2022-08-11T14:18:25;26.60;42.90
23507;DHT22;11930;53.076;18.250;2022-08-11T14:20:58;26.50;43.70
23507;DHT22;11930;53.076;18.250;2022-08-11T14:23:51;26.40;43.10
23507;DHT22;11930;53.076;18.250;2022-08-11T14:26:21;26.40;43.20
23507;DHT22;11930;53.076;18.250;2022-08-11T14:31:29;26.50;43.20
23507;DHT22;11930;53.076;18.250;2022-08-11T14:34:00;26.60;42.30
23507;DHT22;11930;53.076;18.250;2022-08-11T14:36:38;26.60;43.30
23507;DHT22;11930;53.076;18.250;2022-08-11T14:39:08;26.60;44.00
23507;DHT22;11930;53.076;18.250;2022-08-11T14:41:42;26.80;42.40
23507;DHT22;11930;53.076;18.250;2022-08-11T14:44:29;26.90;41.80
23507;DHT22;11930;53.076;18.250;2022-08-11T14:47:14;26.80;41.30
23507;DHT22;11930;53.076;18.250;2022-08-11T14:49:42;26.70;42.30
23507;DHT22;11930;53.076;18.250;2022-08-11T14:52:11;26.70;42.50
23507;DHT22;11930;53.076;18.250;2022-08-11T14:54:42;26.70;43.40
23507;DHT22;11930;53.076;18.250;2022-08-11T14:57:30;26.80;42.20
23507;DHT22;11930;53.076;18.250;2022-08-11T14:59:59;26.80;42.00
23507;DHT22;11930;53.076;18.250;2022-08-11T15:02:26;26.70;41.20
23507;DHT22;11930;53.076;18.250;2022-08-11T15:05:12;26.70;41.90
23507;DHT22;11930;53.076;18.250;2022-08-11T15:07:39;26.80;42.10
23507;DHT22;11930;53.076;18.250;2022-08-11T15:10:08;26.80;42.50
23507;DHT22;11930;53.076;18.250;2022-08-11T15:12:36;26.80;43.10
23507;DHT22;11930;53.076;18.250;2022-08-11T15:15:05;26.90;42.30
23507;DHT22;11930;53.076;18.250;2022-08-11T15:17:53;26.90;42.40
23507;DHT22;11930;53.076;18.250;2022-08-11T15:20:20;27.00;41.70
23507;DHT22;11930;53.076;18.250;2022-08-11T15:23:05;26.90;42.80
23507;DHT22;11930;53.076;18.250;2022-08-11T15:28:32;26.80;42.40
23507;DHT22;11930;53.076;18.250;2022-08-11T15:31:19;26.80;43.40
23507;DHT22;11930;53.076;18.250;2022-08-11T15:34:11;26.80;42.50
23507;DHT22;11930;53.076;18.250;2022-08-11T15:36:59;26.70;42.90
23507;DHT22;11930;53.076;18.250;2022-08-11T15:39:50;26.50;43.00
23507;DHT22;11930;53.076;18.250;2022-08-11T15:42:44;26.40;43.30
23507;DHT22;11930;53.076;18.250;2022-08-11T15:45:31;26.30;44.60
23507;DHT22;11930;53.076;18.250;2022-08-11T15:48:17;26.30;43.70
23507;DHT22;11930;53.076;18.250;2022-08-11T15:50:49;26.30;43.90
23507;DHT22;11930;53.076;18.250;2022-08-11T15:53:18;26.20;43.70
23507;DHT22;11930;53.076;18.250;2022-08-11T15:55:46;26.20;43.70
23507;DHT22;11930;53.076;18.250;2022-08-11T15:58:14;26.20;43.70
23507;DHT22;11930;53.076;18.250;2022-08-11T16:01:04;26.30;43.90
23507;DHT22;11930;53.076;18.250;2022-08-11T16:04:06;26.30;44.70
23507;DHT22;11930;53.076;18.250;2022-08-11T16:06:48;26.30;45.50
23507;DHT22;11930;53.076;18.250;2022-08-11T16:09:19;26.30;43.50
23507;DHT22;11930;53.076;18.250;2022-08-11T16:11:48;26.30;44.10
23507;DHT22;11930;53.076;18.250;2022-08-11T16:14:18;26.30;43.60
23507;DHT22;11930;53.076;18.250;2022-08-11T16:17:05;26.20;43.50
23507;DHT22;11930;53.076;18.250;2022-08-11T16:19:32;26.10;43.20
23507;DHT22;11930;53.076;18.250;2022-08-11T16:22:04;26.10;43.30
23507;DHT22;11930;53.076;18.250;2022-08-11T16:24:33;26.10;43.70
23507;DHT22;11930;53.076;18.250;2022-08-11T16:27:01;26.00;43.70
23507;DHT22;11930;53.076;18.250;2022-08-11T16:29:29;26.00;42.90
23507;DHT22;11930;53.076;18.250;2022-08-11T16:31:57;25.90;43.10
23507;DHT22;11930;53.076;18.250;2022-08-11T16:35:00;25.90;43.90
23507;DHT22;11930;53.076;18.250;2022-08-11T16:37:45;25.80;44.20
23507;DHT22;11930;53.076;18.250;2022-08-11T16:40:31;25.80;44.90
23507;DHT22;11930;53.076;18.250;2022-08-11T16:42:59;25.80;44.60
23507;DHT22;11930;53.076;18.250;2022-08-11T16:45:45;25.70;44.20
23507;DHT22;11930;53.076;18.250;2022-08-11T16:48:33;25.70;44.40
23507;DHT22;11930;53.076;18.250;2022-08-11T16:51:00;25.70;44.70
23507;DHT22;11930;53.076;18.250;2022-08-11T16:53:29;25.60;43.80
23507;DHT22;11930;53.076;18.250;2022-08-11T16:55:58;25.60;44.30
23507;DHT22;11930;53.076;18.250;2022-08-11T16:58:29;25.50;44.50
23507;DHT22;11930;53.076;18.250;2022-08-11T17:01:16;25.50;44.60
23507;DHT22;11930;53.076;18.250;2022-08-11T17:03:52;25.40;44.00
23507;DHT22;11930;53.076;18.250;2022-08-11T17:06:45;25.40;44.90
23507;DHT22;11930;53.076;18.250;2022-08-11T17:09:33;25.40;44.80
23507;DHT22;11930;53.076;18.250;2022-08-11T17:12:24;25.30;45.00
23507;DHT22;11930;53.076;18.250;2022-08-11T17:15:16;25.20;44.80
23507;DHT22;11930;53.076;18.250;2022-08-11T17:18:02;25.20;45.20
23507;DHT22;11930;53.076;18.250;2022-08-11T17:20:31;25.10;45.50
23507;DHT22;11930;53.076;18.250;2022-08-11T17:22:59;25.00;45.80
23507;DHT22;11930;53.076;18.250;2022-08-11T17:25:46;24.90;46.40
23507;DHT22;11930;53.076;18.250;2022-08-11T17:28:14;24.90;45.90
23507;DHT22;11930;53.076;18.250;2022-08-11T17:30:42;24.80;46.50
23507;DHT22;11930;53.076;18.250;2022-08-11T17:33:28;24.80;46.40
23507;DHT22;11930;53.076;18.250;2022-08-11T17:36:16;24.70;47.10
23507;DHT22;11930;53.076;18.250;2022-08-11T17:38:46;24.50;47.30
23507;DHT22;11930;53.076;18.250;2022-08-11T17:41:13;24.40;47.50
23507;DHT22;11930;53.076;18.250;2022-08-11T17:43:58;24.30;48.00
23507;DHT22;11930;53.076;18.250;2022-08-11T17:46:45;24.20;47.80
23507;DHT22;11930;53.076;18.250;2022-08-11T17:49:33;24.10;48.40
23507;DHT22;11930;53.076;18.250;2022-08-11T17:52:06;24.00;48.70
23507;DHT22;11930;53.076;18.250;2022-08-11T17:54:52;23.80;48.60
23507;DHT22;11930;53.076;18.250;2022-08-11T17:57:38;23.70;49.30
23507;DHT22;11930;53.076;18.250;2022-08-11T18:00:24;23.60;49.90
23507;DHT22;11930;53.076;18.250;2022-08-11T18:02:52;23.30;49.80
23507;DHT22;11930;53.076;18.250;2022-08-11T18:05:40;23.20;51.30
23507;DHT22;11930;53.076;18.250;2022-08-11T18:08:09;22.90;53.00
23507;DHT22;11930;53.076;18.250;2022-08-11T18:10:56;22.70;53.30
23507;DHT22;11930;53.076;18.250;2022-08-11T18:13:43;22.40;53.30
23507;DHT22;11930;53.076;18.250;2022-08-11T18:16:28;22.20;54.40
23507;DHT22;11930;53.076;18.250;2022-08-11T18:19:13;21.90;55.80
23507;DHT22;11930;53.076;18.250;2022-08-11T18:22:05;21.60;57.70
23507;DHT22;11930;53.076;18.250;2022-08-11T18:24:56;21.30;57.50
23507;DHT22;11930;53.076;18.250;2022-08-11T18:27:44;21.10;59.30
23507;DHT22;11930;53.076;18.250;2022-08-11T18:30:42;20.90;60.60
23507;DHT22;11930;53.076;18.250;2022-08-11T18:33:35;20.60;60.80
23507;DHT22;11930;53.076;18.250;2022-08-11T18:36:34;20.40;63.20
23507;DHT22;11930;53.076;18.250;2022-08-11T18:39:20;20.20;63.50
23507;DHT22;11930;53.076;18.250;2022-08-11T18:42:13;20.00;65.70
23507;DHT22;11930;53.076;18.250;2022-08-11T18:45:02;19.70;66.80
23507;DHT22;11930;53.076;18.250;2022-08-11T18:47:49;19.50;67.80
23507;DHT22;11930;53.076;18.250;2022-08-11T18:50:36;19.30;69.80
23507;DHT22;11930;53.076;18.250;2022-08-11T18:53:23;19.10;71.00
23507;DHT22;11930;53.076;18.250;2022-08-11T18:56:10;18.90;71.70
23507;DHT22;11930;53.076;18.250;2022-08-11T18:58:55;18.70;74.10
23507;DHT22;11930;53.076;18.250;2022-08-11T19:01:41;18.60;74.90
23507;DHT22;11930;53.076;18.250;2022-08-11T19:04:27;18.40;76.70
23507;DHT22;11930;53.076;18.250;2022-08-11T19:07:13;18.20;77.40
23507;DHT22;11930;53.076;18.250;2022-08-11T19:09:58;18.00;78.20
23507;DHT22;11930;53.076;18.250;2022-08-11T19:12:45;17.90;79.30
23507;DHT22;11930;53.076;18.250;2022-08-11T19:15:31;17.80;80.50
23507;DHT22;11930;53.076;18.250;2022-08-11T19:18:21;17.60;80.90
23507;DHT22;11930;53.076;18.250;2022-08-11T19:21:07;17.50;83.00
23507;DHT22;11930;53.076;18.250;2022-08-11T19:23:56;17.40;83.20
23507;DHT22;11930;53.076;18.250;2022-08-11T19:26:43;17.30;84.70
23507;DHT22;11930;53.076;18.250;2022-08-11T19:29:29;17.20;85.70
23507;DHT22;11930;53.076;18.250;2022-08-11T19:32:14;17.10;85.60
23507;DHT22;11930;53.076;18.250;2022-08-11T19:35:00;17.10;87.20
23507;DHT22;11930;53.076;18.250;2022-08-11T19:37:46;17.00;88.80
23507;DHT22;11930;53.076;18.250;2022-08-11T19:40:34;16.90;90.20
23507;DHT22;11930;53.076;18.250;2022-08-11T19:43:22;16.90;90.10
23507;DHT22;11930;53.076;18.250;2022-08-11T19:46:09;16.90;89.60
23507;DHT22;11930;53.076;18.250;2022-08-11T19:48:56;17.20;87.70
23507;DHT22;11930;53.076;18.250;2022-08-11T19:51:43;17.60;85.70
23507;DHT22;11930;53.076;18.250;2022-08-11T19:54:32;18.10;83.60
23507;DHT22;11930;53.076;18.250;2022-08-11T19:57:19;18.50;82.90
23507;DHT22;11930;53.076;18.250;2022-08-11T20:00:06;18.70;82.80
23507;DHT22;11930;53.076;18.250;2022-08-11T20:02:51;18.90;82.90
23507;DHT22;11930;53.076;18.250;2022-08-11T20:05:37;19.10;82.30
23507;DHT22;11930;53.076;18.250;2022-08-11T20:08:24;19.10;83.10
23507;DHT22;11930;53.076;18.250;2022-08-11T20:11:11;19.20;83.40
23507;DHT22;11930;53.076;18.250;2022-08-11T20:13:57;19.20;84.10
23507;DHT22;11930;53.076;18.250;2022-08-11T20:16:42;19.20;84.00
23507;DHT22;11930;53.076;18.250;2022-08-11T20:19:27;19.10;84.10
23507;DHT22;11930;53.076;18.250;2022-08-11T20:22:14;19.10;84.60